createdAt,value
2017-01-04T00:00:25.689Z,996.59
2017-01-04T00:01:36.431Z,996.58
2017-01-04T00:02:47.023Z,996.58
2017-01-04T00:03:56.969Z,996.42
2017-01-04T00:05:07.706Z,996.59
2017-01-04T00:06:18.448Z,996.42
2017-01-04T00:07:28.792Z,996.37
2017-01-04T00:08:38.755Z,996.25
2017-01-04T00:09:49.505Z,996.25
2017-01-04T00:10:59.859Z,996.16
2017-01-04T00:12:10.198Z,996.09
2017-01-04T00:13:20.134Z,996.07
2017-01-04T00:14:30.510Z,996.24
2017-01-04T00:15:41.250Z,996.15
2017-01-04T00:16:51.605Z,995.92
2017-01-04T00:18:02.350Z,995.95
2017-01-04T00:19:13.091Z,996.17
2017-01-04T00:20:23.433Z,995.93
2017-01-04T00:21:33.787Z,995.83
2017-01-04T00:22:44.134Z,995.94
2017-01-04T00:23:54.870Z,996.1
2017-01-04T00:25:04.816Z,995.94
2017-01-04T00:26:15.142Z,995.73
2017-01-04T00:27:25.488Z,995.81
2017-01-04T00:28:36.231Z,995.85
2017-01-04T00:29:46.992Z,995.67
2017-01-04T00:30:57.785Z,995.65
2017-01-04T00:32:08.531Z,995.63
2017-01-04T00:33:19.263Z,995.47
2017-01-04T00:34:29.999Z,995.72
2017-01-04T00:35:40.372Z,995.79
2017-01-04T00:36:51.122Z,995.52
2017-01-04T00:38:01.521Z,995.62
2017-01-04T00:39:12.251Z,995.76
2017-01-04T00:40:22.198Z,995.61
2017-01-04T00:41:32.175Z,995.9
2017-01-04T00:42:42.532Z,995.7
2017-01-04T00:43:52.872Z,995.6
2017-01-04T00:45:03.212Z,995.53
2017-01-04T00:46:12.773Z,995.69
2017-01-04T00:47:23.513Z,995.67
2017-01-04T00:48:33.855Z,995.47
2017-01-04T00:49:44.227Z,995.51
2017-01-04T00:50:54.565Z,995.56
2017-01-04T00:52:05.357Z,995.45
2017-01-04T00:53:16.097Z,995.44
2017-01-04T00:54:26.064Z,995.64
2017-01-04T00:55:36.822Z,995.42
2017-01-04T00:56:47.559Z,995.48
2017-01-04T00:57:58.296Z,995.42
2017-01-04T00:59:08.645Z,995.62
2017-01-04T01:00:19.394Z,995.24
2017-01-04T01:01:29.759Z,995.39
2017-01-04T01:02:40.497Z,995.28
2017-01-04T01:03:50.453Z,995.2
2017-01-04T01:05:01.190Z,995.22
2017-01-04T01:06:11.928Z,995.1
2017-01-04T01:07:22.257Z,995.17
2017-01-04T01:08:33.001Z,995.08
2017-01-04T01:09:43.768Z,995.23
2017-01-04T01:10:54.125Z,995.08
2017-01-04T01:12:04.870Z,995.12
2017-01-04T01:13:15.602Z,995.04
2017-01-04T01:14:26.364Z,994.91
2017-01-04T01:15:37.105Z,995.1
2017-01-04T01:16:47.887Z,994.99
2017-01-04T01:17:57.842Z,995.06
2017-01-04T01:19:08.587Z,994.91
2017-01-04T01:20:18.945Z,994.97
2017-01-04T01:21:29.288Z,994.98
2017-01-04T01:22:40.036Z,995.21
2017-01-04T01:23:50.395Z,995.12
2017-01-04T01:25:01.130Z,995.25
2017-01-04T01:26:11.867Z,994.78
2017-01-04T01:27:22.612Z,994.99
2017-01-04T01:28:32.992Z,994.92
2017-01-04T01:29:43.341Z,994.86
2017-01-04T01:30:54.104Z,994.85
2017-01-04T01:32:04.843Z,994.95
2017-01-04T01:33:15.580Z,994.89
2017-01-04T01:34:26.334Z,994.99
2017-01-04T01:35:37.076Z,994.93
2017-01-04T01:36:47.813Z,995.06
2017-01-04T01:37:58.183Z,994.89
2017-01-04T01:39:08.915Z,994.83
2017-01-04T01:40:19.291Z,994.89
2017-01-04T01:41:30.069Z,994.82
2017-01-04T01:42:40.427Z,994.63
2017-01-04T01:43:51.174Z,994.74
2017-01-04T01:45:01.917Z,994.66
2017-01-04T01:46:11.482Z,994.66
2017-01-04T01:47:22.232Z,994.66
2017-01-04T01:48:32.971Z,994.59
2017-01-04T01:49:43.757Z,994.53
2017-01-04T01:50:54.497Z,994.52
2017-01-04T01:52:04.450Z,994.78
2017-01-04T01:53:14.802Z,994.42
2017-01-04T01:54:25.549Z,994.27
2017-01-04T01:55:35.896Z,994.48
2017-01-04T01:56:46.242Z,994.37
2017-01-04T01:57:56.626Z,994.44
2017-01-04T01:59:06.980Z,994.41
2017-01-04T02:00:17.722Z,994.41
2017-01-04T02:01:27.699Z,994.33
2017-01-04T02:02:38.031Z,994.38
2017-01-04T02:03:48.808Z,994.35
2017-01-04T02:04:59.148Z,994.41
2017-01-04T02:06:09.920Z,994.22
2017-01-04T02:07:19.877Z,994.25
2017-01-04T02:08:30.229Z,994.39
2017-01-04T02:09:40.975Z,994.03
2017-01-04T02:10:51.321Z,994.2
2017-01-04T02:12:02.054Z,994.22
2017-01-04T02:13:12.827Z,994.25
2017-01-04T02:14:23.173Z,994.17
2017-01-04T02:15:33.905Z,994.21
2017-01-04T02:16:43.856Z,994.1
2017-01-04T02:17:54.228Z,994.04
2017-01-04T02:19:04.996Z,994.06
2017-01-04T02:20:15.341Z,994.26
2017-01-04T02:21:25.700Z,994.21
2017-01-04T02:22:36.435Z,994.08
2017-01-04T02:23:47.157Z,994.15
2017-01-04T02:24:57.519Z,994.21
2017-01-04T02:26:07.871Z,994.11
2017-01-04T02:27:18.613Z,994.21
2017-01-04T02:28:28.953Z,993.94
2017-01-04T02:29:39.691Z,994.13
2017-01-04T02:30:50.037Z,994.02
2017-01-04T02:31:59.993Z,993.82
2017-01-04T02:33:10.742Z,993.94
2017-01-04T02:34:21.087Z,993.93
2017-01-04T02:35:31.444Z,993.96
2017-01-04T02:36:42.190Z,994.09
2017-01-04T02:37:52.923Z,994.02
2017-01-04T02:39:03.664Z,993.9
2017-01-04T02:40:14.395Z,993.79
2017-01-04T02:41:25.148Z,993.9
2017-01-04T02:42:35.925Z,993.96
2017-01-04T02:43:46.691Z,993.68
2017-01-04T02:44:57.043Z,993.79
2017-01-04T02:46:06.839Z,993.73
2017-01-04T02:47:17.596Z,993.76
2017-01-04T02:48:27.951Z,993.76
2017-01-04T02:49:37.890Z,993.66
2017-01-04T02:50:48.642Z,993.64
2017-01-04T02:51:59.412Z,993.53
2017-01-04T02:53:09.794Z,993.48
2017-01-04T02:54:20.146Z,993.52
2017-01-04T02:55:30.879Z,993.37
2017-01-04T02:56:41.225Z,993.4
2017-01-04T02:57:51.961Z,993.4
2017-01-04T02:59:02.703Z,993.55
2017-01-04T03:00:13.441Z,993.54
2017-01-04T03:01:23.788Z,993.35
2017-01-04T03:33:08.539Z,992.7
2017-01-04T03:34:19.256Z,992.42
2017-01-04T03:35:29.985Z,992.51
2017-01-04T03:36:39.530Z,992.48
2017-01-04T03:37:50.251Z,992.39
2017-01-04T03:39:00.988Z,992.61
2017-01-04T03:40:10.554Z,992.67
2017-01-04T03:41:21.307Z,992.48
2017-01-04T03:42:32.038Z,992.67
2017-01-04T03:43:42.776Z,992.49
2017-01-04T03:44:53.112Z,992.44
2017-01-04T03:46:03.078Z,992.43
2017-01-04T03:47:13.816Z,992.52
2017-01-04T03:48:24.571Z,992.48
2017-01-04T03:49:34.923Z,992.33
2017-01-04T03:50:44.869Z,992.42
2017-01-04T03:51:55.206Z,992.32
2017-01-04T03:53:05.650Z,992.22
2017-01-04T03:54:16.387Z,992.36
2017-01-04T03:55:26.743Z,992.34
2017-01-04T03:56:37.093Z,992.01
2017-01-04T03:57:47.060Z,992.03
2017-01-04T03:58:57.793Z,991.98
2017-01-04T04:00:08.529Z,991.88
2017-01-04T04:01:18.885Z,992.14
2017-01-04T04:02:29.620Z,992
2017-01-04T04:03:39.574Z,991.89
2017-01-04T04:04:49.130Z,991.72
2017-01-04T04:05:59.883Z,991.92
2017-01-04T04:07:10.241Z,991.73
2017-01-04T04:08:20.986Z,991.64
2017-01-04T04:09:31.343Z,991.57
2017-01-04T04:10:41.280Z,991.56
2017-01-04T04:11:51.622Z,991.63
2017-01-04T04:13:02.372Z,991.31
2017-01-04T04:14:12.705Z,991.39
2017-01-04T04:15:23.453Z,991.53
2017-01-04T04:16:34.189Z,991.57
2017-01-04T04:17:44.925Z,991.43
2017-01-04T04:18:55.301Z,991.41
2017-01-04T04:20:05.264Z,991.46
2017-01-04T04:21:16.020Z,991.4
2017-01-04T04:22:26.742Z,991.4
2017-01-04T04:23:37.098Z,991.35
2017-01-04T04:24:47.085Z,991.26
2017-01-04T04:25:57.829Z,991.2
2017-01-04T04:27:08.172Z,991.31
2017-01-04T04:28:18.917Z,991.14
2017-01-04T04:29:29.658Z,991.11
2017-01-04T04:30:40.406Z,990.95
2017-01-04T04:31:51.150Z,991.05
2017-01-04T04:33:01.512Z,991.09
2017-01-04T04:34:12.234Z,990.97
2017-01-04T04:35:22.586Z,990.9
2017-01-04T04:36:32.938Z,991.11
2017-01-04T04:37:43.292Z,990.95
2017-01-04T04:38:54.031Z,991.1
2017-01-04T04:40:04.769Z,990.77
2017-01-04T04:41:15.494Z,990.99
2017-01-04T04:42:25.837Z,990.94
2017-01-04T04:43:36.203Z,991.09
2017-01-04T04:44:46.549Z,990.62
2017-01-04T04:45:56.507Z,990.79
2017-01-04T04:47:06.849Z,990.98
2017-01-04T04:48:17.584Z,990.66
2017-01-04T04:49:27.936Z,990.76
2017-01-04T04:50:38.287Z,990.79
2017-01-04T04:51:49.035Z,991.01
2017-01-04T04:52:59.395Z,990.86
2017-01-04T04:54:09.753Z,990.75
2017-01-04T04:55:20.500Z,990.73
2017-01-04T04:56:31.247Z,990.87
2017-01-04T04:57:41.178Z,990.74
2017-01-04T04:58:51.925Z,990.81
2017-01-04T05:00:01.476Z,990.77
2017-01-04T05:01:12.213Z,990.66
2017-01-04T05:02:22.957Z,990.97
2017-01-04T05:03:33.316Z,990.79
2017-01-04T05:04:44.055Z,990.77
2017-01-04T05:05:54.403Z,990.74
2017-01-04T05:07:04.343Z,990.74
2017-01-04T05:08:15.089Z,990.83
2017-01-04T05:09:25.842Z,990.56
2017-01-04T05:10:36.187Z,990.49
2017-01-04T05:11:46.144Z,990.63
2017-01-04T05:12:56.898Z,990.55
2017-01-04T05:14:07.662Z,990.56
2017-01-04T05:15:18.399Z,990.61
2017-01-04T05:16:29.145Z,990.27
2017-01-04T05:17:39.107Z,990.54
2017-01-04T05:18:49.465Z,990.47
2017-01-04T05:20:00.203Z,990.43
2017-01-04T05:21:10.974Z,990.4
2017-01-04T05:22:21.714Z,990.34
2017-01-04T05:23:32.480Z,990.16
2017-01-04T05:24:43.218Z,990.38
2017-01-04T05:25:53.165Z,990.31
2017-01-04T05:27:03.512Z,990.35
2017-01-04T05:28:13.068Z,990.42
2017-01-04T05:29:23.410Z,990.39
2017-01-04T05:30:34.176Z,990.34
2017-01-04T05:31:44.927Z,990.35
2017-01-04T05:32:54.864Z,990.31
2017-01-04T05:34:04.827Z,990.27
2017-01-04T05:35:15.174Z,990.24
2017-01-04T05:36:25.921Z,990.05
2017-01-04T05:37:35.096Z,990.12
2017-01-04T05:38:45.452Z,990.26
2017-01-04T05:39:55.009Z,990.31
2017-01-04T05:41:04.566Z,990.35
2017-01-04T05:42:15.311Z,990.07
2017-01-04T05:43:26.048Z,990.19
2017-01-04T05:44:36.780Z,990.27
2017-01-04T05:45:47.118Z,990.22
2017-01-04T05:46:57.859Z,990.3
2017-01-04T05:48:08.209Z,990.28
2017-01-04T05:49:18.946Z,990.22
2017-01-04T05:50:29.684Z,990.2
2017-01-04T05:51:40.420Z,990.2
2017-01-04T05:52:50.761Z,990.31
2017-01-04T05:54:01.116Z,990.28
2017-01-04T05:55:11.855Z,990.38
2017-01-04T05:56:21.815Z,990.31
2017-01-04T05:57:31.762Z,990.34
2017-01-04T05:58:41.711Z,990.2
2017-01-04T05:59:52.466Z,990.21
2017-01-04T06:01:03.206Z,990.25
2017-01-04T06:02:13.160Z,990.35
2017-01-04T06:03:23.891Z,990.08
2017-01-04T06:04:34.241Z,990.23
2017-01-04T06:05:44.194Z,990.12
2017-01-04T06:06:54.547Z,990.45
2017-01-04T06:08:05.291Z,990.17
2017-01-04T06:09:15.641Z,990.35
2017-01-04T06:10:25.589Z,990.08
2017-01-04T06:11:36.351Z,990.28
2017-01-04T06:12:47.078Z,990.07
2017-01-04T06:13:57.021Z,990.16
2017-01-04T06:15:07.367Z,990.11
2017-01-04T06:16:18.097Z,990.21
2017-01-04T06:17:28.835Z,990.07
2017-01-04T06:18:39.183Z,990.31
2017-01-04T06:19:49.972Z,990.2
2017-01-04T06:21:00.701Z,990.17
2017-01-04T06:22:11.031Z,990.14
2017-01-04T06:23:21.378Z,990.31
2017-01-04T06:24:31.715Z,989.96
2017-01-04T06:25:42.456Z,990.2
2017-01-04T06:26:53.207Z,990.09
2017-01-04T06:28:03.952Z,990.36
2017-01-04T06:29:13.897Z,990.07
2017-01-04T06:30:24.637Z,990.18
2017-01-04T06:31:34.604Z,989.77
2017-01-04T06:32:45.350Z,989.95
2017-01-04T06:33:55.702Z,989.89
2017-01-04T06:35:06.043Z,989.94
2017-01-04T06:36:16.390Z,989.89
2017-01-04T06:37:27.147Z,989.79
2017-01-04T06:38:37.504Z,990.08
2017-01-04T06:39:47.875Z,990.06
2017-01-04T06:40:57.836Z,989.9
2017-01-04T06:42:08.187Z,990.08
2017-01-04T06:43:18.923Z,989.93
2017-01-04T06:44:29.265Z,989.97
2017-01-04T06:45:39.638Z,989.96
2017-01-04T06:46:49.589Z,990.11
2017-01-04T06:48:00.322Z,989.96
2017-01-04T06:49:10.668Z,990.05
2017-01-04T06:50:21.021Z,990.08
2017-01-04T06:51:31.380Z,990.09
2017-01-04T06:52:41.742Z,990.04
2017-01-04T06:53:52.075Z,989.68
2017-01-04T06:55:02.816Z,990.05
2017-01-04T06:56:12.370Z,989.9
2017-01-04T06:57:23.113Z,990.12
2017-01-04T06:58:33.861Z,989.89
2017-01-04T06:59:44.602Z,989.85
2017-01-04T07:00:54.947Z,989.96
2017-01-04T07:02:04.920Z,989.75
2017-01-04T07:03:15.671Z,989.79
2017-01-04T07:04:26.414Z,989.92
2017-01-04T07:05:37.159Z,989.98
2017-01-04T07:06:47.507Z,989.96
2017-01-04T07:07:58.253Z,989.92
2017-01-04T07:09:07.836Z,989.92
2017-01-04T07:10:18.590Z,989.89
2017-01-04T07:11:28.938Z,989.71
2017-01-04T07:12:39.667Z,989.72
2017-01-04T07:13:50.010Z,989.93
2017-01-04T07:15:00.766Z,989.94
2017-01-04T07:16:11.510Z,989.85
2017-01-04T07:17:21.069Z,989.97
2017-01-04T07:18:31.817Z,989.66
2017-01-04T07:19:42.157Z,989.82
2017-01-04T07:20:52.514Z,989.81
2017-01-04T07:22:02.463Z,989.58
2017-01-04T07:23:12.804Z,989.96
2017-01-04T07:24:23.534Z,989.92
2017-01-04T07:25:34.306Z,989.76
2017-01-04T07:26:45.051Z,989.91
2017-01-04T07:27:55.793Z,989.89
2017-01-04T07:29:06.539Z,989.71
2017-01-04T07:30:16.920Z,989.76
2017-01-04T07:31:26.867Z,989.69
2017-01-04T07:32:37.605Z,989.77
2017-01-04T07:33:48.351Z,989.83
2017-01-04T07:34:58.696Z,989.72
2017-01-04T07:36:09.438Z,989.73
2017-01-04T07:37:19.399Z,989.73
2017-01-04T07:38:29.782Z,989.59
2017-01-04T07:39:39.738Z,989.72
2017-01-04T07:40:50.085Z,989.64
2017-01-04T07:42:00.824Z,989.78
2017-01-04T07:43:11.158Z,989.9
2017-01-04T07:44:21.500Z,989.77
2017-01-04T07:45:31.849Z,989.79
2017-01-04T07:46:42.584Z,989.71
2017-01-04T07:47:52.937Z,989.59
2017-01-04T07:49:03.284Z,989.62
2017-01-04T07:50:13.646Z,989.67
2017-01-04T07:51:23.617Z,989.64
2017-01-04T07:52:33.983Z,989.6
2017-01-04T07:53:43.534Z,989.5
2017-01-04T07:54:53.875Z,989.58
2017-01-04T07:56:04.608Z,989.43
2017-01-04T07:57:14.987Z,989.62
2017-01-04T07:58:25.725Z,989.57
2017-01-04T07:59:36.473Z,989.46
2017-01-04T08:00:46.448Z,989.45
2017-01-04T08:01:56.404Z,989.25
2017-01-04T08:03:07.157Z,989.28
2017-01-04T08:04:17.117Z,989.31
2017-01-04T08:05:27.467Z,989.17
2017-01-04T08:06:37.427Z,989.24
2017-01-04T08:07:47.790Z,989.29
2017-01-04T08:08:58.151Z,989.25
2017-01-04T08:10:08.116Z,989.37
2017-01-04T08:11:18.085Z,989.1
2017-01-04T08:12:28.036Z,989.25
2017-01-04T08:13:38.784Z,989.52
2017-01-04T08:14:49.140Z,989.15
2017-01-04T08:15:59.923Z,989.5
2017-01-04T08:17:10.658Z,989.49
2017-01-04T08:18:21.019Z,989.52
2017-01-04T08:19:31.808Z,989.63
2017-01-04T08:20:42.170Z,989.71
2017-01-04T08:21:52.520Z,989.62
2017-01-04T08:23:02.869Z,989.49
2017-01-04T08:24:13.658Z,989.53
2017-01-04T08:25:23.601Z,989.58
2017-01-04T08:26:33.625Z,989.62
2017-01-04T08:27:43.974Z,989.6
2017-01-04T08:28:53.951Z,989.54
2017-01-04T08:30:04.292Z,989.49
2017-01-04T08:31:14.640Z,989.42
2017-01-04T08:32:25.655Z,989.5
2017-01-04T08:33:36.248Z,989.2
2017-01-04T08:34:46.196Z,989.3
2017-01-04T08:35:56.941Z,989.38
2017-01-04T08:37:06.899Z,989.34
2017-01-04T08:38:17.653Z,989.37
2017-01-04T08:39:28.401Z,989.42
2017-01-04T08:40:38.753Z,989.25
2017-01-04T08:41:49.511Z,989.15
2017-01-04T08:42:59.852Z,989.18
2017-01-04T08:44:10.204Z,989.31
2017-01-04T08:45:20.579Z,988.87
2017-01-04T08:46:30.915Z,989.1
2017-01-04T08:47:41.587Z,989.1
2017-01-04T08:48:52.329Z,989.14
2017-01-04T08:50:02.682Z,989.32
2017-01-04T08:51:13.418Z,989.04
2017-01-04T08:52:23.767Z,989.2
2017-01-04T08:53:34.119Z,989.26
2017-01-04T08:54:44.469Z,989.08
2017-01-04T08:55:55.211Z,989.21
2017-01-04T08:57:05.564Z,989.06
2017-01-04T08:58:16.337Z,989
2017-01-04T08:59:27.349Z,989.07
2017-01-04T09:00:37.729Z,988.98
2017-01-04T09:01:48.521Z,988.91
2017-01-04T09:02:58.877Z,988.94
2017-01-04T09:04:09.654Z,988.74
2017-01-04T09:05:20.002Z,989.07
2017-01-04T09:06:30.803Z,988.86
2017-01-04T09:07:43.025Z,988.98
2017-01-04T09:08:53.374Z,988.83
2017-01-04T09:10:03.714Z,989.02
2017-01-04T09:11:13.656Z,988.77
2017-01-04T09:12:24.402Z,988.83
2017-01-04T09:13:35.154Z,988.91
2017-01-04T09:14:45.890Z,988.8
2017-01-04T09:15:56.230Z,988.69
2017-01-04T09:17:06.186Z,988.67
2017-01-04T09:18:16.156Z,988.75
2017-01-04T09:19:26.498Z,989.06
2017-01-04T09:20:37.249Z,988.81
2017-01-04T09:21:47.598Z,988.73
2017-01-04T09:22:57.989Z,988.9
2017-01-04T09:24:08.746Z,988.5
2017-01-04T09:25:19.503Z,988.36
2017-01-04T09:26:29.871Z,988.68
2017-01-04T09:27:40.595Z,988.57
2017-01-04T09:28:50.558Z,988.55
2017-01-04T09:30:01.290Z,988.63
2017-01-04T09:31:12.105Z,988.84
2017-01-04T09:32:23.088Z,988.64
2017-01-04T09:33:33.038Z,988.7
2017-01-04T09:34:43.346Z,988.61
2017-01-04T09:35:54.872Z,988.52
2017-01-04T09:37:05.617Z,988.39
2017-01-04T09:38:15.600Z,988.36
2017-01-04T09:39:26.836Z,988.43
2017-01-04T09:40:37.584Z,988.35
2017-01-04T09:41:47.963Z,988.41
2017-01-04T09:42:59.453Z,988.27
2017-01-04T09:44:09.806Z,988.26
2017-01-04T09:45:20.553Z,988.17
2017-01-04T09:46:31.310Z,988.26
2017-01-04T09:47:41.280Z,988.34
2017-01-04T09:48:52.032Z,988.28
2017-01-04T09:50:02.373Z,988.27
2017-01-04T09:51:12.711Z,988.3
2017-01-04T09:52:23.274Z,988.11
2017-01-04T09:53:33.899Z,988.25
2017-01-04T09:54:44.243Z,988.28
2017-01-04T09:55:54.188Z,988.05
2017-01-04T09:57:04.131Z,988.11
2017-01-04T09:58:14.482Z,988.09
2017-01-04T09:59:24.869Z,987.96
2017-01-04T10:00:35.295Z,987.99
2017-01-04T10:01:45.619Z,987.9
2017-01-04T10:02:55.593Z,987.94
2017-01-04T10:04:06.425Z,987.86
2017-01-04T10:05:17.177Z,987.79
2017-01-04T10:06:27.915Z,987.85
2017-01-04T10:07:38.655Z,987.65
2017-01-04T10:08:48.787Z,987.82
2017-01-04T10:09:58.932Z,987.73
2017-01-04T10:11:09.807Z,987.68
2017-01-04T10:12:20.167Z,987.54
2017-01-04T10:13:30.913Z,987.51
2017-01-04T10:14:41.686Z,987.47
2017-01-04T10:15:52.041Z,987.64
2017-01-04T10:17:02.794Z,987.65
2017-01-04T10:18:13.152Z,987.51
2017-01-04T10:19:23.546Z,987.6
2017-01-04T10:20:33.895Z,987.56
2017-01-04T10:21:44.630Z,987.39
2017-01-04T10:22:55.375Z,987.23
2017-01-04T10:24:06.119Z,987.64
2017-01-04T10:25:16.861Z,987.41
2017-01-04T10:26:27.619Z,987.22
2017-01-04T10:27:37.973Z,987.16
2017-01-04T10:28:48.379Z,987.26
2017-01-04T10:29:59.125Z,987.19
2017-01-04T10:31:09.714Z,987.44
2017-01-04T10:32:20.056Z,987.46
2017-01-04T10:33:30.020Z,987.32
2017-01-04T10:34:40.383Z,987.26
2017-01-04T10:35:50.741Z,987.18
2017-01-04T10:37:00.703Z,987.22
2017-01-04T10:38:10.665Z,987.26
2017-01-04T10:39:21.430Z,987.18
2017-01-04T10:40:31.791Z,987.23
2017-01-04T10:41:42.526Z,987.35
2017-01-04T10:42:53.275Z,987.37
2017-01-04T10:44:03.618Z,987.22
2017-01-04T10:45:13.570Z,987.41
2017-01-04T10:46:24.328Z,987.32
2017-01-04T10:47:35.070Z,987.25
2017-01-04T10:48:45.822Z,987.11
2017-01-04T10:49:56.562Z,987.2
2017-01-04T10:51:07.307Z,987.27
2017-01-04T10:52:18.060Z,987.18
2017-01-04T10:53:28.808Z,987.42
2017-01-04T10:54:39.544Z,987.03
2017-01-04T10:55:50.302Z,987.16
2017-01-04T10:57:01.092Z,986.91
2017-01-04T10:58:11.838Z,987.07
2017-01-04T10:59:22.181Z,987.34
2017-01-04T11:00:32.164Z,987.31
2017-01-04T11:01:42.904Z,987.18
2017-01-04T11:02:53.251Z,987.32
2017-01-04T11:04:03.594Z,987.16
2017-01-04T11:05:13.545Z,987.05
2017-01-04T11:06:23.897Z,987.81
2017-01-04T11:07:34.253Z,987.19
2017-01-04T11:08:44.609Z,987.07
2017-01-04T11:09:55.361Z,987.17
2017-01-04T11:11:06.123Z,987.08
2017-01-04T11:12:16.484Z,986.86
2017-01-04T11:13:27.222Z,987
2017-01-04T11:14:37.580Z,986.7
2017-01-04T11:15:47.950Z,986.76
2017-01-04T11:16:58.696Z,986.98
2017-01-04T11:18:09.043Z,986.62
2017-01-04T11:19:19.006Z,986.59
2017-01-04T11:20:29.742Z,986.86
2017-01-04T11:21:40.101Z,986.73
2017-01-04T11:22:50.457Z,986.81
2017-01-04T11:24:01.211Z,986.83
2017-01-04T11:25:11.559Z,986.77
2017-01-04T11:26:22.300Z,986.88
2017-01-04T11:27:33.038Z,986.78
2017-01-04T11:28:43.811Z,986.91
2017-01-04T11:29:54.155Z,986.76
2017-01-04T11:31:04.511Z,986.64
2017-01-04T11:32:15.288Z,986.98
2017-01-04T11:33:26.044Z,986.66
2017-01-04T11:34:36.799Z,986.85
2017-01-04T11:35:47.557Z,986.74
2017-01-04T11:36:57.895Z,986.96
2017-01-04T11:38:08.644Z,987.19
2017-01-04T11:39:18.601Z,986.89
2017-01-04T11:40:28.960Z,986.79
2017-01-04T11:41:38.907Z,986.76
2017-01-04T11:42:49.258Z,987.02
2017-01-04T11:43:59.646Z,986.79
2017-01-04T11:45:10.407Z,986.81
2017-01-04T11:46:20.368Z,987.02
2017-01-04T11:47:30.324Z,986.98
2017-01-04T11:48:41.089Z,986.97
2017-01-04T11:49:51.053Z,986.62
2017-01-04T11:51:01.790Z,986.66
2017-01-04T11:52:12.542Z,986.95
2017-01-04T11:53:23.304Z,986.75
2017-01-04T11:54:34.040Z,986.75
2017-01-04T11:55:44.797Z,986.79
2017-01-04T11:56:55.204Z,986.63
2017-01-04T11:58:06.975Z,986.59
2017-01-04T11:59:18.363Z,986.56
2017-01-04T12:00:28.708Z,986.54
2017-01-04T12:01:39.990Z,986.71
2017-01-04T12:02:50.787Z,986.57
2017-01-04T12:04:01.284Z,986.66
2017-01-04T12:05:12.516Z,986.57
2017-01-04T12:06:23.269Z,986.58
2017-01-04T12:07:34.026Z,986.63
2017-01-04T12:08:44.806Z,986.8
2017-01-04T12:09:54.894Z,986.52
2017-01-04T12:11:05.238Z,986.53
2017-01-04T12:12:15.456Z,986.86
2017-01-04T12:13:25.483Z,986.67
2017-01-04T12:14:36.455Z,986.58
2017-01-04T12:15:46.955Z,986.61
2017-01-04T12:16:57.811Z,986.74
2017-01-04T12:18:08.552Z,986.67
2017-01-04T12:19:19.447Z,986.21
2017-01-04T12:20:30.189Z,986.71
2017-01-04T12:21:40.542Z,986.74
2017-01-04T12:22:51.328Z,986.61
2017-01-04T12:24:02.066Z,986.61
2017-01-04T12:25:12.803Z,986.48
2017-01-04T12:26:23.579Z,986.84
2017-01-04T12:27:33.917Z,986.71
2017-01-04T12:28:44.268Z,986.78
2017-01-04T12:29:55.015Z,986.62
2017-01-04T12:31:05.771Z,986.56
2017-01-04T12:32:16.140Z,986.52
2017-01-04T12:33:26.921Z,986.55
2017-01-04T12:34:37.718Z,986.8
2017-01-04T12:35:48.080Z,986.48
2017-01-04T12:36:58.435Z,986.41
2017-01-04T12:38:08.785Z,986.32
2017-01-04T12:39:19.128Z,986.54
2017-01-04T12:40:29.497Z,986.46
2017-01-04T12:41:39.850Z,986.25
2017-01-04T12:42:50.593Z,986.44
2017-01-04T12:44:01.340Z,986.52
2017-01-04T12:45:11.691Z,986.64
2017-01-04T12:46:22.438Z,986.47
2017-01-04T12:47:32.789Z,986.5
2017-01-04T12:48:42.347Z,986.51
2017-01-04T12:49:52.700Z,986.47
2017-01-04T12:51:02.297Z,986.83
2017-01-04T12:52:13.047Z,986.72
2017-01-04T12:53:23.796Z,986.43
2017-01-04T12:54:34.568Z,986.83
2017-01-04T12:55:45.344Z,986.58
2017-01-04T12:56:56.120Z,986.36
2017-01-04T12:58:06.079Z,986.85
2017-01-04T12:59:16.430Z,986.6
2017-01-04T13:00:26.387Z,986.66
2017-01-04T13:01:37.133Z,986.46
2017-01-04T13:02:47.880Z,986.59
2017-01-04T13:03:58.623Z,986.48
2017-01-04T13:05:08.590Z,986.57
2017-01-04T13:06:18.946Z,986.54
2017-01-04T13:07:29.710Z,986.51
2017-01-04T13:08:40.466Z,986.59
2017-01-04T13:09:51.211Z,986.72
2017-01-04T13:11:01.564Z,986.58
2017-01-04T13:12:11.525Z,986.55
2017-01-04T13:13:21.862Z,986.47
2017-01-04T13:14:31.820Z,986.73
2017-01-04T13:15:42.198Z,986.65
2017-01-04T13:16:52.942Z,986.52
2017-01-04T13:18:02.907Z,986.5
2017-01-04T13:19:13.658Z,986.37
2017-01-04T13:20:24.425Z,986.59
2017-01-04T13:21:35.155Z,986.44
2017-01-04T13:22:45.510Z,986.69
2017-01-04T13:23:55.471Z,986.63
2017-01-04T13:25:05.814Z,986.58
2017-01-04T13:26:15.773Z,986.56
2017-01-04T13:27:26.139Z,986.5
2017-01-04T13:28:36.886Z,986.68
2017-01-04T13:29:46.848Z,986.72
2017-01-04T13:30:57.586Z,986.77
2017-01-04T13:32:08.332Z,986.86
2017-01-04T13:33:18.697Z,986.69
2017-01-04T13:34:28.659Z,986.76
2017-01-04T13:35:39.401Z,986.72
2017-01-04T13:36:50.167Z,986.81
2017-01-04T13:38:00.513Z,986.82
2017-01-04T13:39:11.258Z,986.77
2017-01-04T13:40:21.998Z,986.78
2017-01-04T13:41:32.362Z,986.71
2017-01-04T13:42:42.299Z,986.76
2017-01-04T13:43:52.665Z,986.79
2017-01-04T13:45:03.021Z,987.01
2017-01-04T13:46:12.987Z,986.67
2017-01-04T13:47:23.770Z,986.95
2017-01-04T13:48:33.741Z,986.83
2017-01-04T13:49:43.297Z,986.84
2017-01-04T13:50:54.044Z,986.87
2017-01-04T13:52:04.816Z,986.89
2017-01-04T13:53:15.555Z,986.9
2017-01-04T13:54:26.303Z,987.12
2017-01-04T13:55:37.047Z,987.01
2017-01-04T13:56:47.799Z,987.02
2017-01-04T13:57:58.164Z,986.85
2017-01-04T13:59:08.125Z,986.99
2017-01-04T14:00:18.512Z,987.14
2017-01-04T14:01:29.262Z,987.18
2017-01-04T14:02:39.214Z,987.17
2017-01-04T14:03:49.946Z,987.13
2017-01-04T14:05:00.295Z,987.03
2017-01-04T14:06:10.659Z,986.99
2017-01-04T14:07:21.010Z,987.2
2017-01-04T14:08:31.378Z,987.08
2017-01-04T14:09:42.125Z,987.14
2017-01-04T14:10:52.475Z,987.03
2017-01-04T14:12:03.226Z,987.13
2017-01-04T14:13:13.974Z,987.15
2017-01-04T14:14:23.931Z,987.22
2017-01-04T14:15:34.277Z,987.21
2017-01-04T14:16:44.247Z,987.27
2017-01-04T14:17:54.596Z,987.06
2017-01-04T14:19:04.956Z,987.11
2017-01-04T14:20:15.699Z,987.22
2017-01-04T14:21:26.440Z,987.13
2017-01-04T14:22:37.203Z,987.18
2017-01-04T14:23:47.943Z,987.26
2017-01-04T14:24:58.349Z,987.25
2017-01-04T14:26:08.317Z,987.19
2017-01-04T14:27:19.061Z,987.36
2017-01-04T14:28:29.405Z,987.31
2017-01-04T14:29:40.157Z,987.33
2017-01-04T14:30:50.142Z,987.17
2017-01-04T14:32:00.494Z,987.24
2017-01-04T14:33:11.281Z,987.21
2017-01-04T14:34:21.631Z,987.27
2017-01-04T14:35:32.375Z,987.27
2017-01-04T14:36:42.736Z,987.33
2017-01-04T14:37:53.111Z,987.2
2017-01-04T14:39:02.679Z,987.31
2017-01-04T14:40:13.434Z,987.27
2017-01-04T14:41:24.195Z,987.18
2017-01-04T14:42:34.947Z,987.21
2017-01-04T14:43:45.685Z,987.24
2017-01-04T14:44:56.437Z,987.21
2017-01-04T14:46:07.217Z,987.23
2017-01-04T14:47:17.562Z,987.3
2017-01-04T14:48:27.521Z,987.58
2017-01-04T14:49:37.471Z,987.41
2017-01-04T14:50:48.219Z,987.4
2017-01-04T14:51:58.185Z,987.39
2017-01-04T14:53:08.538Z,987.39
2017-01-04T14:54:18.878Z,987.52
2017-01-04T14:55:29.623Z,987.48
2017-01-04T14:56:39.574Z,987.48
2017-01-04T14:57:49.536Z,987.53
2017-01-04T14:58:59.880Z,987.57
2017-01-04T15:00:10.639Z,987.38
2017-01-04T15:01:20.614Z,987.41
2017-01-04T15:02:31.360Z,987.4
2017-01-04T15:03:42.102Z,987.35
2017-01-04T15:04:52.884Z,987.33
2017-01-04T15:06:03.255Z,987.27
2017-01-04T15:07:13.611Z,987.37
2017-01-04T15:08:23.975Z,987.42
2017-01-04T15:09:33.955Z,987.41
2017-01-04T15:10:43.982Z,987.37
2017-01-04T15:11:54.615Z,987.24